createdAt,value
2022-10-23T00:00:50.300Z,58.98
2022-10-23T00:01:50.950Z,59.18
2022-10-23T00:02:51.600Z,58.78
2022-10-23T00:03:52.234Z,58.67
2022-10-23T00:04:52.915Z,58.78
2022-10-23T00:05:53.529Z,58.47
2022-10-23T00:06:54.127Z,58.47
2022-10-23T00:07:54.751Z,58.87
2022-10-23T00:08:55.338Z,59.59
2022-10-23T00:09:56.054Z,60.00
2022-10-23T00:10:56.665Z,60.85
2022-10-23T00:11:57.249Z,61.35
2022-10-23T00:12:57.840Z,62.17
2022-10-23T00:13:58.441Z,63.12
2022-10-23T00:14:59.157Z,63.53
2022-10-23T00:15:59.750Z,64.24
2022-10-23T00:17:00.342Z,64.75
2022-10-23T00:18:00.933Z,65.80
2022-10-23T00:19:01.558Z,66.01
2022-10-23T00:20:02.207Z,66.21
2022-10-23T00:21:02.792Z,66.11
2022-10-23T00:22:03.376Z,66.62
2022-10-23T00:23:03.962Z,67.13
2022-10-23T00:24:04.596Z,67.54
2022-10-23T00:25:05.293Z,67.75
2022-10-23T00:26:05.892Z,68.57
2022-10-23T00:27:06.473Z,68.36
2022-10-23T00:28:07.056Z,68.36
2022-10-23T00:29:07.643Z,68.05
2022-10-23T00:30:08.288Z,67.41
2022-10-23T00:31:08.871Z,66.69
2022-10-23T00:32:09.459Z,65.88
2022-10-23T00:33:10.045Z,65.06
2022-10-23T00:34:10.654Z,63.32
2022-10-23T00:35:11.367Z,61.90
2022-10-23T00:36:11.963Z,61.25
2022-10-23T00:37:12.564Z,60.85
2022-10-23T00:38:13.160Z,60.13
2022-10-23T00:39:13.747Z,59.92
2022-10-23T00:40:14.500Z,59.92
2022-10-23T00:41:15.097Z,59.31
2022-10-23T00:42:15.689Z,59.11
2022-10-23T00:43:16.284Z,59.41
2022-10-23T00:44:16.887Z,59.82
2022-10-23T00:45:17.524Z,59.85
2022-10-23T00:46:18.118Z,60.36
2022-10-23T00:47:18.712Z,60.36
2022-10-23T00:48:19.307Z,59.75
2022-10-23T00:49:19.922Z,59.75
2022-10-23T00:50:20.561Z,59.75
2022-10-23T00:51:21.143Z,59.75
2022-10-23T00:52:21.733Z,59.55
2022-10-23T00:53:22.328Z,59.34
2022-10-23T00:54:24.430Z,59.23
2022-10-23T00:55:23.566Z,59.14
2022-10-23T00:56:24.160Z,58.93
2022-10-23T00:57:24.856Z,58.93
2022-10-23T00:58:25.496Z,58.73
2022-10-23T00:59:26.082Z,58.50
2022-10-23T01:00:26.920Z,58.39
2022-10-23T01:01:27.626Z,58.50
2022-10-23T01:02:28.391Z,58.50
2022-10-23T01:03:29.024Z,58.19
2022-10-23T01:04:29.644Z,57.17
2022-10-23T01:05:30.280Z,57.14
2022-10-23T01:06:30.862Z,56.73
2022-10-23T01:07:31.448Z,56.43
2022-10-23T01:08:32.031Z,56.23
2022-10-23T01:09:32.619Z,55.41
2022-10-23T01:10:33.391Z,54.69
2022-10-23T01:11:33.981Z,54.59
2022-10-23T01:12:34.574Z,54.28
2022-10-23T01:13:35.164Z,54.28
2022-10-23T01:14:35.754Z,54.49
2022-10-23T01:15:36.401Z,54.69
2022-10-23T01:16:36.992Z,54.69
2022-10-23T01:17:39.668Z,55.10
2022-10-23T01:18:38.472Z,55.30
2022-10-23T01:19:39.089Z,56.43
2022-10-23T01:20:39.741Z,56.86
2022-10-23T01:21:40.335Z,57.78
2022-10-23T01:22:41.364Z,58.80
2022-10-23T01:23:41.660Z,59.75
2022-10-23T01:24:42.256Z,60.36
2022-10-23T01:25:42.888Z,61.08
2022-10-23T01:26:43.491Z,61.18
2022-10-23T01:27:44.088Z,61.38
2022-10-23T01:28:44.686Z,61.38
2022-10-23T01:29:45.274Z,61.28
2022-10-23T01:30:45.921Z,61.49
2022-10-23T01:31:46.528Z,61.38
2022-10-23T01:32:47.122Z,60.46
2022-10-23T01:33:47.702Z,60.44
2022-10-23T01:34:48.312Z,60.33
2022-10-23T01:35:48.949Z,59.41
2022-10-23T01:36:49.544Z,59.31
2022-10-23T01:37:50.134Z,59.11
2022-10-23T01:38:50.752Z,58.09
2022-10-23T01:39:51.373Z,57.68
2022-10-23T01:40:52.120Z,57.57
2022-10-23T01:41:52.702Z,57.37
2022-10-23T01:42:53.290Z,57.57
2022-10-23T01:43:53.879Z,57.37
2022-10-23T01:44:54.458Z,57.07
2022-10-23T01:45:55.114Z,57.17
2022-10-23T01:46:55.700Z,56.25
2022-10-23T01:47:56.273Z,56.56
2022-10-23T01:48:56.855Z,55.74
2022-10-23T01:49:57.451Z,55.74
2022-10-23T01:50:58.142Z,56.25
2022-10-23T01:51:58.725Z,55.74
2022-10-23T01:52:59.306Z,54.41
2022-10-23T01:53:59.927Z,53.77
2022-10-23T01:55:00.517Z,53.47
2022-10-23T01:56:01.139Z,52.75
2022-10-23T01:57:01.735Z,51.93
2022-10-23T01:58:02.313Z,51.43
2022-10-23T01:59:02.892Z,50.38
2022-10-23T02:00:03.478Z,49.77
2022-10-23T02:01:04.228Z,50.18
2022-10-23T02:02:05.007Z,49.77
2022-10-23T02:03:05.639Z,50.08
2022-10-23T02:04:06.217Z,50.48
2022-10-23T02:05:06.824Z,50.28
2022-10-23T02:06:07.470Z,50.18
2022-10-23T02:07:08.079Z,50.08
2022-10-23T02:08:08.670Z,50.08
2022-10-23T02:09:09.256Z,49.98
2022-10-23T02:10:09.848Z,49.46
2022-10-23T02:11:11.216Z,49.87
2022-10-23T02:12:11.295Z,50.15
2022-10-23T02:13:11.884Z,50.05
2022-10-23T02:14:12.482Z,50.69
2022-10-23T02:15:13.076Z,49.98
2022-10-23T02:16:13.730Z,49.77
2022-10-23T02:17:14.315Z,50.38
2022-10-23T02:18:14.900Z,49.46
2022-10-23T02:19:15.527Z,49.65
2022-10-23T02:20:16.130Z,50.05
2022-10-23T02:21:16.773Z,49.85
2022-10-23T02:22:17.353Z,50.28
2022-10-23T02:23:17.936Z,50.38
2022-10-23T02:24:18.524Z,50.28
2022-10-23T02:25:19.118Z,49.98
2022-10-23T02:26:19.778Z,49.24
2022-10-23T02:27:20.377Z,49.13
2022-10-23T02:28:20.960Z,48.73
2022-10-23T02:29:21.565Z,48.63
2022-10-23T02:30:22.143Z,48.93
2022-10-23T02:31:22.789Z,48.83
2022-10-23T02:32:23.387Z,47.69
2022-10-23T02:33:23.979Z,48.30
2022-10-23T02:34:24.573Z,47.99
2022-10-23T02:35:25.185Z,48.10
2022-10-23T02:36:25.807Z,47.38
2022-10-23T02:37:26.400Z,46.97
2022-10-23T02:38:27.000Z,45.65
2022-10-23T02:39:27.601Z,45.54
2022-10-23T02:40:28.191Z,44.92
2022-10-23T02:41:28.967Z,44.92
2022-10-23T02:42:29.540Z,44.31
2022-10-23T02:43:30.142Z,44.00
2022-10-23T02:44:30.725Z,42.55
2022-10-23T02:45:31.385Z,41.84
2022-10-23T02:46:32.150Z,40.80
2022-10-23T02:47:32.731Z,40.39
2022-10-23T02:48:33.328Z,39.78
2022-10-23T02:49:33.934Z,39.66
2022-10-23T02:50:34.539Z,39.56
2022-10-23T02:51:35.212Z,39.26
2022-10-23T02:52:35.792Z,39.15
2022-10-23T02:53:36.380Z,38.75
2022-10-23T02:54:36.964Z,38.45
2022-10-23T02:55:37.575Z,37.82
2022-10-23T02:56:38.704Z,38.32
2022-10-23T02:57:38.883Z,38.02
2022-10-23T02:58:39.505Z,38.22
2022-10-23T02:59:40.091Z,37.61
2022-10-23T03:00:40.668Z,38.22
2022-10-23T03:01:41.390Z,38.63
2022-10-23T03:02:42.055Z,38.53
2022-10-23T03:03:42.642Z,38.63
2022-10-23T03:04:43.233Z,39.04
2022-10-23T03:05:43.844Z,39.34
2022-10-23T03:06:44.482Z,39.24
2022-10-23T03:07:45.208Z,39.87
2022-10-23T03:08:46.037Z,40.48
2022-10-23T03:09:46.638Z,40.88
2022-10-23T03:11:46.958Z,41.09
2022-10-23T03:12:48.543Z,41.31
2022-10-23T03:13:49.132Z,41.61
2022-10-23T03:14:49.744Z,42.02
2022-10-23T03:15:50.329Z,41.61
2022-10-23T03:16:51.035Z,42.33
2022-10-23T03:17:51.623Z,42.22
2022-10-23T03:18:52.221Z,42.33
2022-10-23T03:19:52.850Z,43.06
2022-10-23T03:20:53.460Z,43.26
2022-10-23T03:21:54.770Z,43.87
2022-10-23T03:22:54.858Z,43.87
2022-10-23T03:23:55.451Z,44.08
2022-10-23T03:24:56.041Z,43.98
2022-10-23T03:25:56.635Z,43.98
2022-10-23T03:26:57.270Z,44.59
2022-10-23T03:27:57.870Z,44.40
2022-10-23T03:28:58.473Z,43.77
2022-10-23T03:29:59.066Z,44.08
2022-10-23T03:30:59.663Z,43.37
2022-10-23T03:32:00.313Z,43.87
2022-10-23T03:33:00.897Z,43.98
2022-10-23T03:34:04.023Z,44.18
2022-10-23T03:35:02.333Z,43.77
2022-10-23T03:36:02.941Z,43.77
2022-10-23T03:37:03.574Z,43.37
2022-10-23T03:38:04.148Z,43.37
2022-10-23T03:39:04.731Z,42.45
2022-10-23T03:40:05.322Z,42.33
2022-10-23T03:41:05.918Z,42.22
2022-10-23T03:42:06.665Z,43.04
2022-10-23T03:43:07.250Z,43.75
2022-10-23T03:44:07.834Z,43.44
2022-10-23T03:45:08.427Z,43.67
2022-10-23T03:46:09.010Z,43.87
2022-10-23T03:47:09.653Z,44.18
2022-10-23T03:48:10.253Z,44.89
2022-10-23T03:49:10.841Z,44.71
2022-10-23T03:50:11.435Z,44.61
2022-10-23T03:51:12.051Z,45.12
2022-10-23T03:52:12.762Z,45.32
2022-10-23T03:53:13.378Z,45.42
2022-10-23T03:54:13.962Z,45.63
2022-10-23T03:55:14.554Z,45.63
2022-10-23T03:56:15.144Z,46.14
2022-10-23T03:57:15.808Z,46.44
2022-10-23T03:58:16.399Z,46.64
2022-10-23T03:59:16.998Z,46.03
2022-10-23T04:00:17.593Z,46.85
2022-10-23T04:01:18.275Z,46.75
2022-10-23T04:02:19.091Z,46.44
2022-10-23T04:03:19.742Z,47.16
2022-10-23T04:04:20.333Z,47.26
2022-10-23T04:05:20.924Z,47.36
2022-10-23T04:06:21.557Z,46.75
2022-10-23T04:07:22.293Z,45.73
2022-10-23T04:08:22.878Z,45.32
2022-10-23T04:09:23.464Z,44.18
2022-10-23T04:10:24.051Z,44.18
2022-10-23T04:11:24.594Z,43.87
2022-10-23T04:12:25.366Z,43.65
2022-10-23T04:13:25.958Z,43.96
2022-10-23T04:14:26.547Z,44.67
2022-10-23T04:15:27.133Z,44.77
2022-10-23T04:16:27.716Z,45.38
2022-10-23T04:18:27.853Z,45.10
2022-10-23T04:19:29.401Z,44.59
2022-10-23T04:20:29.940Z,43.98
2022-10-23T04:21:30.498Z,44.06
2022-10-23T04:22:31.074Z,44.26
2022-10-23T04:23:31.605Z,44.16
2022-10-23T04:24:32.145Z,44.97
2022-10-23T04:25:32.673Z,45.40
2022-10-23T04:26:33.212Z,46.11
2022-10-23T04:27:33.835Z,46.52
2022-10-23T04:28:34.370Z,47.13
2022-10-23T04:29:34.899Z,47.87
2022-10-23T04:30:35.435Z,48.50
2022-10-23T04:31:35.972Z,48.40
2022-10-23T04:32:36.938Z,48.30
2022-10-23T04:33:37.487Z,48.40
2022-10-23T04:34:38.030Z,48.50
2022-10-23T04:35:38.564Z,49.11
2022-10-23T04:36:39.118Z,49.11
2022-10-23T04:37:39.898Z,48.50
2022-10-23T04:38:40.560Z,48.71
2022-10-23T04:39:41.099Z,48.81
2022-10-23T04:40:41.643Z,48.40
2022-10-23T04:41:42.179Z,48.89
2022-10-23T04:42:43.191Z,48.68
2022-10-23T04:43:43.351Z,48.89
2022-10-23T04:44:43.917Z,49.29
2022-10-23T04:45:44.450Z,49.40
2022-10-23T04:46:44.994Z,49.50
2022-10-23T04:47:45.593Z,49.09
2022-10-23T04:48:46.170Z,48.27
2022-10-23T04:49:46.713Z,47.77
2022-10-23T04:50:47.251Z,47.54
2022-10-23T04:51:47.821Z,47.13
2022-10-23T04:52:48.416Z,45.79
2022-10-23T04:53:48.944Z,44.77
2022-10-23T04:54:49.486Z,44.46
2022-10-23T04:55:50.019Z,44.34
2022-10-23T04:56:50.555Z,43.23
2022-10-23T04:57:51.135Z,42.71
2022-10-23T04:58:51.664Z,42.21
2022-10-23T04:59:52.201Z,41.38
2022-10-23T05:00:52.775Z,40.36
2022-10-23T05:01:53.385Z,40.75
2022-10-23T05:02:54.008Z,40.75
2022-10-23T05:03:54.538Z,40.54
2022-10-23T05:04:55.074Z,40.84
2022-10-23T05:05:55.605Z,41.56
2022-10-23T05:06:56.170Z,41.96
2022-10-23T05:07:56.808Z,42.07
2022-10-23T05:08:57.344Z,42.07
2022-10-23T05:09:57.881Z,42.08
2022-10-23T05:10:58.412Z,41.99
2022-10-23T05:11:58.943Z,42.08
2022-10-23T05:12:59.603Z,41.76
2022-10-23T05:14:00.147Z,42.17
2022-10-23T05:15:00.700Z,41.76
2022-10-23T05:16:01.230Z,41.96
2022-10-23T05:17:01.773Z,41.96
2022-10-23T05:18:02.374Z,41.05
2022-10-23T05:19:02.912Z,40.75
2022-10-23T05:20:03.447Z,41.24
2022-10-23T05:21:03.982Z,40.93
2022-10-23T05:22:04.572Z,40.83
2022-10-23T05:23:05.223Z,40.72
2022-10-23T05:24:05.785Z,40.12
2022-10-23T05:25:06.323Z,40.62
2022-10-23T05:26:06.867Z,40.52
2022-10-23T05:27:07.403Z,40.30
2022-10-23T05:28:07.993Z,40.70
2022-10-23T05:29:08.537Z,41.21
2022-10-23T05:30:09.077Z,41.72
2022-10-23T05:31:09.626Z,41.62
2022-10-23T05:32:10.207Z,42.63
2022-10-23T05:33:11.048Z,43.06
2022-10-23T05:34:13.412Z,41.94
2022-10-23T05:35:12.181Z,41.93
2022-10-23T05:36:12.709Z,41.11
2022-10-23T05:37:13.309Z,41.72
2022-10-23T05:38:13.890Z,41.91
2022-10-23T05:39:14.463Z,42.11
2022-10-23T05:40:14.994Z,43.53
2022-10-23T05:41:15.556Z,44.04
2022-10-23T05:42:16.099Z,43.32
2022-10-23T05:43:16.818Z,42.11
2022-10-23T05:44:17.351Z,41.09
2022-10-23T05:45:17.890Z,39.65
2022-10-23T05:46:18.436Z,38.42
2022-10-23T05:47:18.973Z,37.81
2022-10-23T05:48:33.438Z,37.38
2022-10-23T05:49:20.452Z,36.76
2022-10-23T05:50:20.986Z,36.54
2022-10-23T05:51:21.519Z,35.22
2022-10-23T05:52:22.088Z,35.72
2022-10-23T05:53:22.674Z,35.61
2022-10-23T05:54:23.235Z,35.30
2022-10-23T05:55:23.767Z,35.50
2022-10-23T05:56:24.302Z,35.68
2022-10-23T05:57:24.858Z,35.36
2022-10-23T05:58:25.442Z,34.64
2022-10-23T05:59:25.975Z,33.51
2022-10-23T06:00:26.506Z,32.78
2022-10-23T06:01:27.157Z,32.46
2022-10-23T06:02:27.915Z,32.03
2022-10-23T06:03:28.577Z,31.20
2022-10-23T06:04:29.113Z,30.47
2022-10-23T06:05:29.707Z,29.74
2022-10-23T06:06:30.284Z,28.52
2022-10-23T06:07:33.647Z,28.50
2022-10-23T06:08:31.939Z,27.69
2022-10-23T06:09:32.482Z,28.08
2022-10-23T06:10:33.019Z,27.96
2022-10-23T06:11:33.555Z,27.64
2022-10-23T06:12:34.090Z,26.52
2022-10-23T06:13:34.769Z,26.52
2022-10-23T06:14:35.311Z,25.91
2022-10-23T06:15:35.843Z,25.90
2022-10-23T06:16:36.377Z,25.78
2022-10-23T06:17:36.916Z,25.77
2022-10-23T06:18:37.524Z,24.37
2022-10-23T06:19:38.055Z,24.76
2022-10-23T06:20:38.586Z,23.85
2022-10-23T06:21:39.127Z,23.55
2022-10-23T06:22:39.783Z,22.83
2022-10-23T06:23:40.574Z,22.83
2022-10-23T06:24:41.114Z,23.03
2022-10-23T06:25:41.667Z,22.81
2022-10-23T06:26:42.208Z,23.00
2022-10-23T06:27:42.740Z,23.00
2022-10-23T06:28:43.329Z,23.10
2022-10-23T06:29:43.855Z,23.30
2022-10-23T06:30:44.395Z,23.28
2022-10-23T06:31:44.956Z,23.08
2022-10-23T06:32:45.810Z,23.08
2022-10-23T06:33:46.164Z,23.07
2022-10-23T06:34:46.699Z,22.36
2022-10-23T06:35:47.232Z,22.16
2022-10-23T06:36:47.771Z,22.36
2022-10-23T06:37:48.360Z,22.55
2022-10-23T06:38:49.025Z,22.44
2022-10-23T06:39:49.593Z,22.24
2022-10-23T06:40:50.137Z,21.92
2022-10-23T06:41:50.669Z,22.13
2022-10-23T06:42:51.205Z,22.11
2022-10-23T06:43:51.992Z,22.00
2022-10-23T06:44:52.528Z,22.00
2022-10-23T06:45:53.062Z,21.70
2022-10-23T06:46:53.602Z,21.80
2022-10-23T06:47:54.145Z,21.78
2022-10-23T06:48:54.724Z,21.69
2022-10-23T06:49:55.255Z,21.69
2022-10-23T06:50:55.788Z,21.56
2022-10-23T06:51:56.328Z,21.46
2022-10-23T06:52:56.883Z,21.05
2022-10-23T06:53:57.470Z,20.94
2022-10-23T06:54:58.002Z,21.14
2022-10-23T06:55:58.533Z,21.24
2022-10-23T06:56:59.068Z,21.34
2022-10-23T06:57:59.595Z,21.14
2022-10-23T06:59:00.173Z,21.44
2022-10-23T07:00:00.709Z,20.94
2022-10-23T07:01:01.360Z,20.62
2022-10-23T07:02:02.111Z,20.31
2022-10-23T07:03:02.669Z,20.20
2022-10-23T07:04:03.270Z,20.01
2022-10-23T07:05:03.814Z,20.00
2022-10-23T07:06:04.357Z,19.79
2022-10-23T07:07:04.900Z,19.58
2022-10-23T07:08:05.470Z,19.48
2022-10-23T07:09:06.164Z,19.18
2022-10-23T07:10:06.795Z,19.08
2022-10-23T07:11:07.360Z,18.98
2022-10-23T07:12:07.911Z,19.07
2022-10-23T07:13:08.440Z,18.48
2022-10-23T07:14:09.089Z,18.27
2022-10-23T07:15:09.626Z,18.29
2022-10-23T07:16:10.175Z,18.48
2022-10-23T07:17:10.731Z,18.57
2022-10-23T07:18:11.290Z,18.57
2022-10-23T07:19:11.996Z,18.57
2022-10-23T07:20:12.539Z,19.17
2022-10-23T07:21:13.072Z,18.77
2022-10-23T07:22:15.827Z,18.66
2022-10-23T07:23:14.285Z,18.06
2022-10-23T07:24:14.865Z,17.85
2022-10-23T07:25:15.406Z,17.45
2022-10-23T07:26:15.948Z,16.95
2022-10-23T07:27:16.486Z,16.54
2022-10-23T07:28:17.025Z,16.35
2022-10-23T07:29:17.617Z,16.44
2022-10-23T07:30:18.152Z,16.13
2022-10-23T07:31:18.683Z,16.34
2022-10-23T07:32:19.215Z,16.44
2022-10-23T07:33:19.745Z,16.23
2022-10-23T07:34:20.330Z,16.23
2022-10-23T07:35:20.866Z,16.13
2022-10-23T07:36:21.403Z,16.42
2022-10-23T07:37:21.941Z,16.13
2022-10-23T07:38:22.509Z,16.73
2022-10-23T07:39:23.095Z,16.92
2022-10-23T07:40:23.624Z,16.42
2022-10-23T07:41:24.155Z,16.13
2022-10-23T07:42:24.699Z,16.61
2022-10-23T07:43:25.303Z,16.41
2022-10-23T07:44:27.734Z,16.30
2022-10-23T07:45:26.469Z,15.90
2022-10-23T07:46:27.002Z,15.60
2022-10-23T07:47:27.556Z,15.78
2022-10-23T07:48:28.094Z,15.50
2022-10-23T07:49:28.680Z,15.30
2022-10-23T07:50:29.217Z,14.91
2022-10-23T07:51:29.755Z,14.92
2022-10-23T07:52:33.486Z,15.01
2022-10-23T07:53:31.211Z,15.41
2022-10-23T07:54:31.803Z,15.22
2022-10-23T07:55:32.346Z,15.42
2022-10-23T07:56:32.879Z,15.81
2022-10-23T07:57:33.414Z,15.81
2022-10-23T07:58:33.951Z,16.09
2022-10-23T07:59:37.235Z,15.90
2022-10-23T08:00:35.183Z,16.00
2022-10-23T08:01:35.826Z,15.70
2022-10-23T08:02:36.471Z,16.30
2022-10-23T08:03:37.026Z,15.43
2022-10-23T08:04:37.621Z,15.34
2022-10-23T08:05:38.162Z,15.64
2022-10-23T08:06:38.692Z,15.54
2022-10-23T08:07:39.243Z,15.74
2022-10-23T08:08:39.834Z,15.66
2022-10-23T08:09:40.504Z,16.14
2022-10-23T08:10:41.046Z,16.83
2022-10-23T08:11:41.607Z,17.72
2022-10-23T08:12:42.463Z,18.12
2022-10-23T08:13:42.789Z,18.91
2022-10-23T08:14:43.371Z,19.20
2022-10-23T08:15:43.905Z,19.70
2022-10-23T08:16:44.438Z,19.90
2022-10-23T08:17:45.417Z,20.30
2022-10-23T08:18:45.657Z,20.61
2022-10-23T08:19:46.243Z,21.00
2022-10-23T08:20:46.762Z,21.00
2022-10-23T08:21:47.293Z,21.30
2022-10-23T08:22:47.831Z,21.59
2022-10-23T08:23:48.403Z,21.41
2022-10-23T08:24:49.012Z,21.70
2022-10-23T08:25:49.549Z,21.90
2022-10-23T08:26:50.087Z,22.20
2022-10-23T08:27:52.176Z,22.20
2022-10-23T08:28:51.346Z,22.41
2022-10-23T08:29:52.017Z,22.71
2022-10-23T08:30:52.568Z,23.00
2022-10-23T08:31:53.103Z,23.40
2022-10-23T08:32:53.636Z,23.51
2022-10-23T08:33:54.183Z,23.71
2022-10-23T08:34:54.779Z,23.71
2022-10-23T08:35:55.316Z,23.90
2022-10-23T08:36:55.848Z,24.10
2022-10-23T08:37:56.381Z,24.19
2022-10-23T08:38:56.954Z,24.38
2022-10-23T08:39:57.542Z,24.48
2022-10-23T08:40:58.083Z,24.48
2022-10-23T08:41:58.674Z,24.87
2022-10-23T08:42:59.294Z,25.05
2022-10-23T08:43:59.835Z,25.16
2022-10-23T08:45:00.568Z,25.15
2022-10-23T08:46:01.247Z,24.74
2022-10-23T08:47:01.807Z,24.33
2022-10-23T08:48:02.343Z,23.83
2022-10-23T08:49:02.891Z,23.44
2022-10-23T08:50:03.513Z,23.23
2022-10-23T08:51:04.047Z,22.63
2022-10-23T08:52:04.592Z,22.22
2022-10-23T08:53:05.168Z,20.83
2022-10-23T08:54:05.731Z,20.82
2022-10-23T08:55:06.337Z,20.90
2022-10-23T08:56:06.871Z,20.80
2022-10-23T08:57:07.416Z,20.89
2022-10-23T08:58:07.955Z,21.64
2022-10-23T08:59:08.488Z,21.14
2022-10-23T09:00:09.073Z,20.25
2022-10-23T09:01:09.739Z,19.46
2022-10-23T09:02:10.465Z,19.74
2022-10-23T09:03:11.084Z,20.01
2022-10-23T09:04:11.624Z,19.70
2022-10-23T09:05:12.265Z,19.30
2022-10-23T09:06:12.811Z,18.80
2022-10-23T09:07:13.348Z,18.79
2022-10-23T09:08:13.891Z,18.11
2022-10-23T09:09:14.472Z,18.10
2022-10-23T09:10:15.202Z,18.09
2022-10-23T09:11:15.735Z,18.18
2022-10-23T09:12:16.270Z,17.69
2022-10-23T09:13:16.817Z,17.50
2022-10-23T09:14:17.373Z,17.49
2022-10-23T09:15:18.064Z,17.98
2022-10-23T09:16:18.650Z,18.07
2022-10-23T09:17:19.194Z,17.69
2022-10-23T09:18:19.735Z,18.55
2022-10-23T09:19:20.272Z,18.76
2022-10-23T09:20:20.935Z,18.75
2022-10-23T09:21:21.471Z,18.47
2022-10-23T09:22:22.022Z,18.85
2022-10-23T09:23:22.584Z,19.43
2022-10-23T09:24:23.159Z,19.52
2022-10-23T09:25:23.794Z,20.50
2022-10-23T09:26:24.329Z,20.01
2022-10-23T09:27:24.860Z,20.21
2022-10-23T09:28:25.393Z,19.81
2022-10-23T09:29:25.930Z,19.80
2022-10-23T09:30:26.517Z,19.31
2022-10-23T09:31:27.057Z,18.62
2022-10-23T09:32:27.592Z,18.04
2022-10-23T09:33:28.152Z,18.23
2022-10-23T09:34:28.699Z,18.41
2022-10-23T09:35:29.291Z,18.32
2022-10-23T09:36:29.824Z,18.41
2022-10-23T09:37:30.358Z,18.79
2022-10-23T09:38:30.898Z,19.09
2022-10-23T09:39:31.463Z,19.09
2022-10-23T09:40:32.059Z,19.08
2022-10-23T09:41:32.623Z,18.88
2022-10-23T09:42:33.164Z,19.57
2022-10-23T09:43:33.720Z,19.87
2022-10-23T09:44:34.254Z,19.76
2022-10-23T09:45:35.003Z,19.37
2022-10-23T09:46:35.538Z,19.56
2022-10-23T09:47:36.083Z,19.46
2022-10-23T09:48:36.627Z,19.17
2022-10-23T09:49:37.169Z,19.45
2022-10-23T09:50:37.837Z,19.55
2022-10-23T09:51:38.378Z,19.36
2022-10-23T09:52:38.913Z,19.17
2022-10-23T09:53:39.447Z,18.86
2022-10-23T09:54:40.018Z,18.66
2022-10-23T09:55:40.613Z,18.75
2022-10-23T09:56:41.239Z,17.98
2022-10-23T09:57:42.225Z,17.79
2022-10-23T09:58:42.481Z,18.08
2022-10-23T09:59:43.059Z,17.88
2022-10-23T10:00:43.678Z,17.60
2022-10-23T10:01:44.350Z,18.08
2022-10-23T10:02:44.976Z,18.27
2022-10-23T10:03:45.517Z,17.70
2022-10-23T10:04:46.050Z,18.38
2022-10-23T10:05:46.669Z,18.68
2022-10-23T10:06:47.205Z,19.07
2022-10-23T10:07:47.739Z,18.77
2022-10-23T10:08:48.276Z,18.66
2022-10-23T10:09:48.850Z,17.60
2022-10-23T10:10:49.581Z,17.61
2022-10-23T10:11:50.119Z,18.10
2022-10-23T10:12:50.654Z,18.18
2022-10-23T10:13:51.199Z,18.18
2022-10-23T10:14:51.740Z,18.38
2022-10-23T10:15:53.156Z,18.00
2022-10-23T10:16:53.192Z,17.42
2022-10-23T10:17:53.736Z,17.61
2022-10-23T10:18:54.273Z,17.32
2022-10-23T10:19:54.814Z,17.31
2022-10-23T10:20:55.402Z,17.11
2022-10-23T10:21:55.941Z,17.19
2022-10-23T10:22:56.482Z,17.49
2022-10-23T10:23:57.025Z,17.30
2022-10-23T10:24:57.597Z,17.49
2022-10-23T10:25:58.280Z,16.92
2022-10-23T10:26:58.814Z,17.11
2022-10-23T10:27:59.352Z,16.93
2022-10-23T10:28:59.897Z,17.21
2022-10-23T10:30:00.454Z,17.22
2022-10-23T10:31:01.095Z,17.61
2022-10-23T10:32:01.637Z,17.51
2022-10-23T10:33:02.178Z,16.83
2022-10-23T10:34:02.714Z,17.13
2022-10-23T10:35:03.247Z,17.13
2022-10-23T10:36:03.940Z,17.13
2022-10-23T10:37:04.484Z,16.94
2022-10-23T10:38:05.019Z,16.64
2022-10-23T10:39:05.553Z,16.04
2022-10-23T10:40:06.113Z,16.13
2022-10-23T10:41:06.703Z,15.94
2022-10-23T10:42:07.236Z,16.41
2022-10-23T10:43:07.781Z,16.31
2022-10-23T10:44:08.346Z,16.01
2022-10-23T10:45:08.878Z,15.71
2022-10-23T10:46:09.592Z,15.12
2022-10-23T10:47:10.161Z,15.03
2022-10-23T10:48:10.706Z,15.41
2022-10-23T10:49:11.252Z,14.93
2022-10-23T10:50:11.801Z,15.12
2022-10-23T10:51:12.389Z,15.22
2022-10-23T10:52:12.923Z,15.69
2022-10-23T10:53:13.458Z,15.01
2022-10-23T10:54:13.999Z,13.67
2022-10-23T10:55:14.566Z,14.81
2022-10-23T10:56:15.178Z,14.81
2022-10-23T10:57:15.714Z,15.11
2022-10-23T10:58:16.250Z,15.50
2022-10-23T10:59:16.813Z,15.61
2022-10-23T11:00:17.352Z,15.31
2022-10-23T11:01:18.202Z,15.30
2022-10-23T11:02:18.964Z,15.20
2022-10-23T11:03:19.571Z,15.11
2022-10-23T11:04:20.107Z,15.30
2022-10-23T11:05:20.638Z,15.01
2022-10-23T11:06:21.440Z,14.62
2022-10-23T11:07:21.973Z,14.23
2022-10-23T11:08:22.526Z,14.03
2022-10-23T11:09:23.063Z,13.95
2022-10-23T11:10:23.620Z,14.44
2022-10-23T11:11:24.280Z,15.02
2022-10-23T11:12:24.814Z,15.41
2022-10-23T11:13:25.350Z,15.50
2022-10-23T11:14:25.903Z,15.41
2022-10-23T11:15:26.440Z,15.40
2022-10-23T11:16:27.115Z,15.30
2022-10-23T11:17:27.663Z,14.72
2022-10-23T11:18:28.211Z,14.52
2022-10-23T11:19:28.747Z,14.81
2022-10-23T11:20:29.292Z,15.01
2022-10-23T11:21:29.878Z,15.39
2022-10-23T11:22:30.414Z,15.59
2022-10-23T11:23:30.954Z,15.98
2022-10-23T11:24:31.496Z,16.39
2022-10-23T11:25:32.060Z,16.60
2022-10-23T11:26:32.641Z,15.83
2022-10-23T11:27:33.177Z,16.23
2022-10-23T11:28:33.727Z,16.24
2022-10-23T11:29:34.258Z,16.44
2022-10-23T11:30:34.796Z,16.26
2022-10-23T11:31:35.385Z,17.62
2022-10-23T11:32:35.923Z,17.43
2022-10-23T11:33:37.646Z,17.03
2022-10-23T11:34:37.278Z,15.78
2022-10-23T11:35:37.839Z,16.26
2022-10-23T11:36:38.431Z,16.16
2022-10-23T11:37:38.974Z,16.06
2022-10-23T11:38:39.515Z,16.93
2022-10-23T11:39:40.059Z,17.41
2022-10-23T11:40:40.707Z,16.93
2022-10-23T11:41:41.350Z,16.93
2022-10-23T11:42:42.365Z,17.41
2022-10-23T11:43:42.615Z,17.99
2022-10-23T11:44:43.151Z,18.10
2022-10-23T11:45:43.694Z,18.48
2022-10-23T11:46:44.369Z,18.27
2022-10-23T11:47:44.911Z,18.48
2022-10-23T11:48:45.453Z,18.57
2022-10-23T11:49:45.985Z,18.49
2022-10-23T11:50:46.530Z,18.68
2022-10-23T11:51:47.132Z,19.28
2022-10-23T11:52:56.205Z,19.57
2022-10-23T11:53:48.546Z,19.57
2022-10-23T11:54:49.076Z,19.08
2022-10-23T11:55:49.637Z,18.77
2022-10-23T11:56:50.229Z,18.48
2022-10-23T11:57:50.776Z,18.68
2022-10-23T11:58:51.315Z,18.97
2022-10-23T11:59:51.853Z,18.77
2022-10-23T12:00:52.388Z,18.08
2022-10-23T12:01:53.121Z,18.18
2022-10-23T12:02:58.342Z,18.38
2022-10-23T12:03:54.600Z,18.66
2022-10-23T12:04:55.138Z,19.24
2022-10-23T12:06:55.253Z,19.65
2022-10-23T12:07:56.799Z,19.45
2022-10-23T12:08:57.352Z,19.45
2022-10-23T12:09:57.925Z,19.65
2022-10-23T12:10:58.488Z,20.03
2022-10-23T12:11:59.097Z,20.13
2022-10-23T12:12:59.713Z,19.72
2022-10-23T12:14:00.372Z,19.43
2022-10-23T12:15:00.959Z,19.62
2022-10-23T12:16:01.517Z,19.92
2022-10-23T12:17:02.216Z,20.02
2022-10-23T12:18:02.754Z,20.31
2022-10-23T12:19:03.301Z,20.21
2022-10-23T12:20:03.840Z,20.30
2022-10-23T12:21:04.380Z,20.50
2022-10-23T12:22:05.097Z,20.20
2022-10-23T12:23:05.636Z,20.30
2022-10-23T12:24:06.179Z,20.70
2022-10-23T12:25:06.709Z,20.51
2022-10-23T12:26:07.267Z,20.70
2022-10-23T12:27:07.852Z,21.10
2022-10-23T12:28:08.390Z,21.20
2022-10-23T12:29:08.924Z,21.01
2022-10-23T12:30:09.457Z,20.91
2022-10-23T12:31:09.998Z,21.31
2022-10-23T12:32:10.584Z,21.40
2022-10-23T12:33:11.116Z,21.59
2022-10-23T12:34:11.648Z,21.39
2022-10-23T12:35:12.197Z,21.31
2022-10-23T12:36:12.731Z,21.39
2022-10-23T12:37:13.400Z,21.38
2022-10-23T12:38:13.935Z,21.58
2022-10-23T12:39:14.541Z,21.48
2022-10-23T12:40:15.105Z,21.48
2022-10-23T12:41:15.670Z,21.28
2022-10-23T12:42:16.256Z,21.68
2022-10-23T12:43:16.790Z,21.69
2022-10-23T12:44:17.328Z,21.80
2022-10-23T12:45:17.871Z,21.99
2022-10-23T12:46:18.403Z,22.19
2022-10-23T12:47:19.079Z,22.09
2022-10-23T12:48:19.648Z,22.09
2022-10-23T12:49:20.220Z,21.69
2022-10-23T12:50:20.760Z,21.48
2022-10-23T12:51:21.309Z,21.28
2022-10-23T12:52:21.903Z,21.19
2022-10-23T12:53:22.466Z,21.28
2022-10-23T12:54:22.988Z,21.30
2022-10-23T12:55:23.520Z,21.58
2022-10-23T12:56:24.078Z,21.88
2022-10-23T12:57:24.668Z,22.55
2022-10-23T12:58:25.210Z,21.58
2022-10-23T12:59:25.759Z,20.70
2022-10-23T13:00:26.290Z,20.29
2022-10-23T13:01:26.930Z,19.52
2022-10-23T13:02:27.744Z,19.32
2022-10-23T13:03:28.373Z,19.32